sensor_id;sensor_type;location;lat;lon;timestamp;P1;durP1;ratioP1;P2;durP2;ratioP2
63346;SDS011;49472;49.880;8.650;2023-09-07T00:01:06;17.10;;;15.70;;
63346;SDS011;49472;49.880;8.650;2023-09-07T00:03:31;16.00;;;14.80;;
63346;SDS011;49472;49.880;8.650;2023-09-07T00:05:56;17.50;;;16.00;;
63346;SDS011;49472;49.880;8.650;2023-09-07T00:08:21;16.60;;;15.37;;
63346;SDS011;49472;49.880;8.650;2023-09-07T00:10:46;17.23;;;15.95;;
63346;SDS011;49472;49.880;8.650;2023-09-07T00:13:12;16.58;;;15.13;;
63346;SDS011;49472;49.880;8.650;2023-09-07T00:15:37;16.67;;;15.20;;
63346;SDS011;49472;49.880;8.650;2023-09-07T00:18:03;17.40;;;15.93;;
63346;SDS011;49472;49.880;8.650;2023-09-07T00:20:28;16.63;;;15.32;;
63346;SDS011;49472;49.880;8.650;2023-09-07T00:22:53;17.52;;;15.65;;
63346;SDS011;49472;49.880;8.650;2023-09-07T00:25:21;16.33;;;14.90;;
63346;SDS011;49472;49.880;8.650;2023-09-07T00:27:46;15.52;;;14.43;;
63346;SDS011;49472;49.880;8.650;2023-09-07T00:30:11;16.35;;;15.05;;
63346;SDS011;49472;49.880;8.650;2023-09-07T00:32:37;17.55;;;15.95;;
63346;SDS011;49472;49.880;8.650;2023-09-07T00:35:05;17.27;;;14.45;;
63346;SDS011;49472;49.880;8.650;2023-09-07T00:37:31;16.08;;;14.98;;
63346;SDS011;49472;49.880;8.650;2023-09-07T00:39:56;16.85;;;15.55;;
63346;SDS011;49472;49.880;8.650;2023-09-07T00:42:21;16.20;;;15.00;;
63346;SDS011;49472;49.880;8.650;2023-09-07T00:44:46;16.27;;;14.95;;
63346;SDS011;49472;49.880;8.650;2023-09-07T00:47:13;16.52;;;14.73;;
63346;SDS011;49472;49.880;8.650;2023-09-07T00:49:38;16.52;;;15.05;;
63346;SDS011;49472;49.880;8.650;2023-09-07T00:52:04;17.23;;;15.43;;
63346;SDS011;49472;49.880;8.650;2023-09-07T00:54:30;15.98;;;14.43;;
63346;SDS011;49472;49.880;8.650;2023-09-07T00:56:55;17.20;;;15.75;;
63346;SDS011;49472;49.880;8.650;2023-09-07T00:59:20;17.50;;;15.75;;
63346;SDS011;49472;49.880;8.650;2023-09-07T01:01:45;17.70;;;15.13;;
63346;SDS011;49472;49.880;8.650;2023-09-07T01:04:11;16.17;;;14.68;;
63346;SDS011;49472;49.880;8.650;2023-09-07T01:06:37;16.02;;;14.55;;
63346;SDS011;49472;49.880;8.650;2023-09-07T01:09:06;16.52;;;15.10;;
63346;SDS011;49472;49.880;8.650;2023-09-07T01:11:35;14.82;;;13.75;;
63346;SDS011;49472;49.880;8.650;2023-09-07T01:14:02;15.77;;;14.32;;
63346;SDS011;49472;49.880;8.650;2023-09-07T01:16:29;15.15;;;13.95;;
63346;SDS011;49472;49.880;8.650;2023-09-07T01:18:54;15.95;;;14.65;;
63346;SDS011;49472;49.880;8.650;2023-09-07T01:21:19;15.52;;;14.35;;
63346;SDS011;49472;49.880;8.650;2023-09-07T01:23:44;17.33;;;15.73;;
63346;SDS011;49472;49.880;8.650;2023-09-07T01:26:11;16.00;;;14.50;;
63346;SDS011;49472;49.880;8.650;2023-09-07T01:28:36;15.45;;;14.20;;
63346;SDS011;49472;49.880;8.650;2023-09-07T01:31:05;16.00;;;14.90;;
63346;SDS011;49472;49.880;8.650;2023-09-07T01:33:31;16.40;;;15.05;;
63346;SDS011;49472;49.880;8.650;2023-09-07T01:35:56;19.35;;;15.55;;
63346;SDS011;49472;49.880;8.650;2023-09-07T01:38:21;16.08;;;14.80;;
63346;SDS011;49472;49.880;8.650;2023-09-07T01:40:47;16.73;;;15.63;;
63346;SDS011;49472;49.880;8.650;2023-09-07T01:43:12;17.77;;;16.42;;
63346;SDS011;49472;49.880;8.650;2023-09-07T01:45:37;15.98;;;14.88;;
63346;SDS011;49472;49.880;8.650;2023-09-07T01:48:03;17.07;;;15.77;;
63346;SDS011;49472;49.880;8.650;2023-09-07T01:50:28;16.42;;;15.02;;
63346;SDS011;49472;49.880;8.650;2023-09-07T01:52:53;17.50;;;16.10;;
63346;SDS011;49472;49.880;8.650;2023-09-07T01:55:18;16.98;;;15.77;;
63346;SDS011;49472;49.880;8.650;2023-09-07T01:57:44;16.98;;;15.57;;
63346;SDS011;49472;49.880;8.650;2023-09-07T02:00:09;16.73;;;15.52;;
63346;SDS011;49472;49.880;8.650;2023-09-07T02:02:35;17.25;;;15.52;;
63346;SDS011;49472;49.880;8.650;2023-09-07T02:05:00;16.57;;;15.10;;
63346;SDS011;49472;49.880;8.650;2023-09-07T02:07:25;16.15;;;14.95;;
63346;SDS011;49472;49.880;8.650;2023-09-07T02:09:50;16.55;;;15.13;;
63346;SDS011;49472;49.880;8.650;2023-09-07T02:12:16;16.27;;;14.73;;
63346;SDS011;49472;49.880;8.650;2023-09-07T02:14:41;17.10;;;15.60;;
63346;SDS011;49472;49.880;8.650;2023-09-07T02:17:06;19.10;;;15.35;;
63346;SDS011;49472;49.880;8.650;2023-09-07T02:19:32;25.55;;;15.98;;
63346;SDS011;49472;49.880;8.650;2023-09-07T02:21:57;16.40;;;15.30;;
63346;SDS011;49472;49.880;8.650;2023-09-07T02:24:22;19.37;;;15.50;;
63346;SDS011;49472;49.880;8.650;2023-09-07T02:26:47;18.10;;;16.53;;
63346;SDS011;49472;49.880;8.650;2023-09-07T02:29:12;18.10;;;15.67;;
63346;SDS011;49472;49.880;8.650;2023-09-07T02:31:39;17.10;;;15.50;;
63346;SDS011;49472;49.880;8.650;2023-09-07T02:34:04;20.15;;;16.63;;
63346;SDS011;49472;49.880;8.650;2023-09-07T02:36:29;16.42;;;15.13;;
63346;SDS011;49472;49.880;8.650;2023-09-07T02:38:54;17.50;;;15.10;;
63346;SDS011;49472;49.880;8.650;2023-09-07T02:41:19;18.70;;;17.00;;
63346;SDS011;49472;49.880;8.650;2023-09-07T02:43:45;18.37;;;15.27;;
63346;SDS011;49472;49.880;8.650;2023-09-07T02:46:10;17.50;;;16.10;;
63346;SDS011;49472;49.880;8.650;2023-09-07T02:48:35;17.33;;;15.93;;
63346;SDS011;49472;49.880;8.650;2023-09-07T02:51:00;18.50;;;16.77;;
63346;SDS011;49472;49.880;8.650;2023-09-07T02:53:26;17.25;;;16.05;;
63346;SDS011;49472;49.880;8.650;2023-09-07T02:55:51;17.93;;;16.40;;
63346;SDS011;49472;49.880;8.650;2023-09-07T02:58:16;17.20;;;15.90;;
63346;SDS011;49472;49.880;8.650;2023-09-07T03:00:42;17.75;;;16.25;;
63346;SDS011;49472;49.880;8.650;2023-09-07T03:03:09;17.20;;;15.80;;
63346;SDS011;49472;49.880;8.650;2023-09-07T03:05:34;19.05;;;16.50;;
63346;SDS011;49472;49.880;8.650;2023-09-07T03:07:59;17.40;;;16.00;;
63346;SDS011;49472;49.880;8.650;2023-09-07T03:10:24;18.77;;;16.88;;
63346;SDS011;49472;49.880;8.650;2023-09-07T03:12:49;17.58;;;16.08;;
63346;SDS011;49472;49.880;8.650;2023-09-07T03:15:15;16.47;;;15.10;;
63346;SDS011;49472;49.880;8.650;2023-09-07T03:17:40;17.23;;;15.75;;
63346;SDS011;49472;49.880;8.650;2023-09-07T03:20:06;18.07;;;16.37;;
63346;SDS011;49472;49.880;8.650;2023-09-07T03:22:38;17.60;;;16.00;;
63346;SDS011;49472;49.880;8.650;2023-09-07T03:25:03;17.40;;;16.00;;
63346;SDS011;49472;49.880;8.650;2023-09-07T03:27:29;18.27;;;16.77;;
63346;SDS011;49472;49.880;8.650;2023-09-07T03:29:54;17.03;;;15.50;;
63346;SDS011;49472;49.880;8.650;2023-09-07T03:32:19;18.45;;;16.70;;
63346;SDS011;49472;49.880;8.650;2023-09-07T03:34:45;18.27;;;16.77;;
63346;SDS011;49472;49.880;8.650;2023-09-07T03:37:10;17.87;;;16.47;;
63346;SDS011;49472;49.880;8.650;2023-09-07T03:39:36;18.90;;;16.40;;
63346;SDS011;49472;49.880;8.650;2023-09-07T03:42:01;17.85;;;16.35;;
63346;SDS011;49472;49.880;8.650;2023-09-07T03:44:27;17.93;;;16.33;;
63346;SDS011;49472;49.880;8.650;2023-09-07T03:46:52;20.20;;;16.80;;
63346;SDS011;49472;49.880;8.650;2023-09-07T03:49:17;22.03;;;17.03;;
63346;SDS011;49472;49.880;8.650;2023-09-07T03:51:42;18.67;;;16.93;;
63346;SDS011;49472;49.880;8.650;2023-09-07T03:54:07;18.17;;;16.60;;
63346;SDS011;49472;49.880;8.650;2023-09-07T03:56:32;30.27;;;16.50;;
63346;SDS011;49472;49.880;8.650;2023-09-07T03:58:58;21.90;;;17.53;;
63346;SDS011;49472;49.880;8.650;2023-09-07T04:01:23;18.77;;;16.57;;
63346;SDS011;49472;49.880;8.650;2023-09-07T04:03:48;17.23;;;16.03;;
63346;SDS011;49472;49.880;8.650;2023-09-07T04:06:15;18.67;;;16.83;;
63346;SDS011;49472;49.880;8.650;2023-09-07T04:08:40;19.70;;;17.70;;
63346;SDS011;49472;49.880;8.650;2023-09-07T04:11:05;19.70;;;18.20;;
63346;SDS011;49472;49.880;8.650;2023-09-07T04:13:31;20.20;;;18.20;;
63346;SDS011;49472;49.880;8.650;2023-09-07T04:15:56;20.77;;;19.00;;
63346;SDS011;49472;49.880;8.650;2023-09-07T04:18:21;19.80;;;18.03;;
63346;SDS011;49472;49.880;8.650;2023-09-07T04:20:46;19.70;;;17.60;;
63346;SDS011;49472;49.880;8.650;2023-09-07T04:23:11;20.23;;;18.63;;
63346;SDS011;49472;49.880;8.650;2023-09-07T04:25:37;19.90;;;18.30;;
63346;SDS011;49472;49.880;8.650;2023-09-07T04:28:04;18.97;;;17.60;;
63346;SDS011;49472;49.880;8.650;2023-09-07T04:30:29;19.43;;;17.67;;
63346;SDS011;49472;49.880;8.650;2023-09-07T04:32:55;19.80;;;18.03;;
63346;SDS011;49472;49.880;8.650;2023-09-07T04:35:20;19.27;;;17.57;;
63346;SDS011;49472;49.880;8.650;2023-09-07T04:37:45;19.40;;;17.90;;
63346;SDS011;49472;49.880;8.650;2023-09-07T04:40:10;20.50;;;18.80;;
63346;SDS011;49472;49.880;8.650;2023-09-07T04:42:36;19.87;;;17.40;;
63346;SDS011;49472;49.880;8.650;2023-09-07T04:45:03;19.53;;;18.00;;
63346;SDS011;49472;49.880;8.650;2023-09-07T04:47:28;21.13;;;18.40;;
63346;SDS011;49472;49.880;8.650;2023-09-07T04:49:54;19.00;;;17.53;;
63346;SDS011;49472;49.880;8.650;2023-09-07T04:52:19;19.15;;;17.65;;
63346;SDS011;49472;49.880;8.650;2023-09-07T04:54:44;19.47;;;17.17;;
63346;SDS011;49472;49.880;8.650;2023-09-07T04:57:09;19.07;;;17.30;;
63346;SDS011;49472;49.880;8.650;2023-09-07T04:59:35;19.13;;;17.27;;
63346;SDS011;49472;49.880;8.650;2023-09-07T05:02:00;19.60;;;18.20;;
63346;SDS011;49472;49.880;8.650;2023-09-07T05:04:28;19.97;;;18.07;;
63346;SDS011;49472;49.880;8.650;2023-09-07T05:06:54;19.40;;;17.80;;
63346;SDS011;49472;49.880;8.650;2023-09-07T05:09:19;18.57;;;16.97;;
63346;SDS011;49472;49.880;8.650;2023-09-07T05:11:45;18.83;;;17.43;;
63346;SDS011;49472;49.880;8.650;2023-09-07T05:14:10;18.10;;;16.60;;
63346;SDS011;49472;49.880;8.650;2023-09-07T05:16:35;29.27;;;18.30;;
63346;SDS011;49472;49.880;8.650;2023-09-07T05:19:00;18.47;;;17.07;;
63346;SDS011;49472;49.880;8.650;2023-09-07T05:21:26;19.23;;;17.33;;
63346;SDS011;49472;49.880;8.650;2023-09-07T05:23:51;19.10;;;17.70;;
63346;SDS011;49472;49.880;8.650;2023-09-07T05:26:20;18.23;;;16.70;;
63346;SDS011;49472;49.880;8.650;2023-09-07T05:28:45;19.27;;;17.67;;
63346;SDS011;49472;49.880;8.650;2023-09-07T05:31:11;19.27;;;17.40;;
63346;SDS011;49472;49.880;8.650;2023-09-07T05:33:36;18.93;;;17.23;;
63346;SDS011;49472;49.880;8.650;2023-09-07T05:36:01;18.50;;;16.85;;
63346;SDS011;49472;49.880;8.650;2023-09-07T05:38:26;17.70;;;16.20;;
63346;SDS011;49472;49.880;8.650;2023-09-07T05:40:52;18.70;;;17.20;;
63346;SDS011;49472;49.880;8.650;2023-09-07T05:43:19;17.93;;;16.13;;
63346;SDS011;49472;49.880;8.650;2023-09-07T05:45:44;19.30;;;17.80;;
63346;SDS011;49472;49.880;8.650;2023-09-07T05:48:09;18.60;;;17.30;;
63346;SDS011;49472;49.880;8.650;2023-09-07T05:50:35;19.07;;;17.43;;
63346;SDS011;49472;49.880;8.650;2023-09-07T05:53:01;18.20;;;16.87;;
63346;SDS011;49472;49.880;8.650;2023-09-07T05:55:27;18.83;;;16.90;;
63346;SDS011;49472;49.880;8.650;2023-09-07T05:57:54;19.37;;;17.30;;
63346;SDS011;49472;49.880;8.650;2023-09-07T06:00:19;17.90;;;16.40;;
63346;SDS011;49472;49.880;8.650;2023-09-07T06:02:45;20.13;;;18.07;;
63346;SDS011;49472;49.880;8.650;2023-09-07T06:05:10;18.07;;;16.67;;
63346;SDS011;49472;49.880;8.650;2023-09-07T06:07:36;17.97;;;15.73;;
63346;SDS011;49472;49.880;8.650;2023-09-07T06:10:01;17.10;;;15.70;;
63346;SDS011;49472;49.880;8.650;2023-09-07T06:12:26;17.50;;;15.87;;
63346;SDS011;49472;49.880;8.650;2023-09-07T06:14:51;19.03;;;17.23;;
63346;SDS011;49472;49.880;8.650;2023-09-07T06:17:17;17.25;;;16.05;;
63346;SDS011;49472;49.880;8.650;2023-09-07T06:19:42;16.30;;;15.20;;
63346;SDS011;49472;49.880;8.650;2023-09-07T06:22:07;16.23;;;15.17;;
63346;SDS011;49472;49.880;8.650;2023-09-07T06:24:32;16.23;;;15.03;;
63346;SDS011;49472;49.880;8.650;2023-09-07T06:26:58;17.60;;;16.20;;
63346;SDS011;49472;49.880;8.650;2023-09-07T06:29:23;18.00;;;16.50;;
63346;SDS011;49472;49.880;8.650;2023-09-07T06:31:48;16.97;;;15.57;;
63346;SDS011;49472;49.880;8.650;2023-09-07T06:34:15;16.90;;;15.50;;
63346;SDS011;49472;49.880;8.650;2023-09-07T06:36:40;17.27;;;15.80;;
63346;SDS011;49472;49.880;8.650;2023-09-07T06:39:05;17.10;;;15.53;;
63346;SDS011;49472;49.880;8.650;2023-09-07T06:41:30;18.73;;;16.93;;
63346;SDS011;49472;49.880;8.650;2023-09-07T06:43:56;17.87;;;16.43;;
63346;SDS011;49472;49.880;8.650;2023-09-07T06:46:21;16.98;;;15.50;;
63346;SDS011;49472;49.880;8.650;2023-09-07T06:48:46;17.53;;;16.30;;
63346;SDS011;49472;49.880;8.650;2023-09-07T06:51:11;17.03;;;15.73;;
63346;SDS011;49472;49.880;8.650;2023-09-07T06:53:36;17.97;;;16.47;;
63346;SDS011;49472;49.880;8.650;2023-09-07T06:56:02;17.53;;;15.77;;
63346;SDS011;49472;49.880;8.650;2023-09-07T06:58:28;21.75;;;15.38;;
63346;SDS011;49472;49.880;8.650;2023-09-07T07:00:57;16.70;;;15.60;;
63346;SDS011;49472;49.880;8.650;2023-09-07T07:03:24;17.40;;;16.00;;
63346;SDS011;49472;49.880;8.650;2023-09-07T07:05:49;17.75;;;16.15;;
63346;SDS011;49472;49.880;8.650;2023-09-07T07:08:16;17.63;;;16.17;;
63346;SDS011;49472;49.880;8.650;2023-09-07T07:10:41;17.33;;;15.73;;
63346;SDS011;49472;49.880;8.650;2023-09-07T07:13:07;17.60;;;16.33;;
63346;SDS011;49472;49.880;8.650;2023-09-07T07:15:32;15.90;;;14.80;;
63346;SDS011;49472;49.880;8.650;2023-09-07T07:17:57;17.20;;;15.85;;
63346;SDS011;49472;49.880;8.650;2023-09-07T07:20:22;17.27;;;15.30;;
63346;SDS011;49472;49.880;8.650;2023-09-07T07:22:47;17.10;;;15.60;;
63346;SDS011;49472;49.880;8.650;2023-09-07T07:25:13;18.70;;;17.10;;
63346;SDS011;49472;49.880;8.650;2023-09-07T07:27:38;17.98;;;16.38;;
63346;SDS011;49472;49.880;8.650;2023-09-07T07:30:04;16.45;;;15.00;;
63346;SDS011;49472;49.880;8.650;2023-09-07T07:32:29;16.42;;;15.25;;
63346;SDS011;49472;49.880;8.650;2023-09-07T07:34:54;16.58;;;15.23;;
63346;SDS011;49472;49.880;8.650;2023-09-07T07:37:20;17.30;;;16.10;;
63346;SDS011;49472;49.880;8.650;2023-09-07T07:39:45;16.70;;;15.00;;
63346;SDS011;49472;49.880;8.650;2023-09-07T07:42:10;16.73;;;15.07;;
63346;SDS011;49472;49.880;8.650;2023-09-07T07:44:36;16.58;;;15.48;;
63346;SDS011;49472;49.880;8.650;2023-09-07T07:47:01;16.98;;;15.38;;
63346;SDS011;49472;49.880;8.650;2023-09-07T07:49:26;16.33;;;15.13;;
63346;SDS011;49472;49.880;8.650;2023-09-07T07:51:52;16.27;;;15.27;;
63346;SDS011;49472;49.880;8.650;2023-09-07T07:54:20;16.92;;;15.73;;
63346;SDS011;49472;49.880;8.650;2023-09-07T07:56:47;18.23;;;16.63;;
63346;SDS011;49472;49.880;8.650;2023-09-07T07:59:12;17.83;;;16.00;;
63346;SDS011;49472;49.880;8.650;2023-09-07T08:01:38;16.77;;;15.67;;
63346;SDS011;49472;49.880;8.650;2023-09-07T08:04:03;16.75;;;15.35;;
63346;SDS011;49472;49.880;8.650;2023-09-07T08:06:28;17.20;;;15.63;;
63346;SDS011;49472;49.880;8.650;2023-09-07T08:08:54;20.00;;;16.23;;
63346;SDS011;49472;49.880;8.650;2023-09-07T08:11:19;18.33;;;16.52;;
63346;SDS011;49472;49.880;8.650;2023-09-07T08:13:46;15.82;;;14.60;;
63346;SDS011;49472;49.880;8.650;2023-09-07T08:16:12;17.67;;;15.00;;
63346;SDS011;49472;49.880;8.650;2023-09-07T08:18:37;17.38;;;16.08;;
63346;SDS011;49472;49.880;8.650;2023-09-07T08:21:02;17.60;;;16.00;;
63346;SDS011;49472;49.880;8.650;2023-09-07T08:23:28;17.10;;;15.35;;
63346;SDS011;49472;49.880;8.650;2023-09-07T08:25:53;15.63;;;14.57;;
63346;SDS011;49472;49.880;8.650;2023-09-07T08:28:19;17.08;;;15.98;;
63346;SDS011;49472;49.880;8.650;2023-09-07T08:30:45;16.17;;;15.07;;
63346;SDS011;49472;49.880;8.650;2023-09-07T08:33:11;20.65;;;15.52;;
63346;SDS011;49472;49.880;8.650;2023-09-07T08:35:36;17.00;;;15.70;;
63346;SDS011;49472;49.880;8.650;2023-09-07T08:38:08;16.77;;;15.57;;
63346;SDS011;49472;49.880;8.650;2023-09-07T08:40:34;16.27;;;15.18;;
63346;SDS011;49472;49.880;8.650;2023-09-07T08:43:01;17.10;;;16.00;;
63346;SDS011;49472;49.880;8.650;2023-09-07T08:45:27;16.50;;;15.40;;
63346;SDS011;49472;49.880;8.650;2023-09-07T08:47:54;17.38;;;15.80;;
63346;SDS011;49472;49.880;8.650;2023-09-07T08:50:19;16.67;;;15.30;;
63346;SDS011;49472;49.880;8.650;2023-09-07T08:52:46;17.15;;;15.82;;
63346;SDS011;49472;49.880;8.650;2023-09-07T08:55:12;16.77;;;15.48;;
63346;SDS011;49472;49.880;8.650;2023-09-07T08:57:37;16.45;;;15.35;;
63346;SDS011;49472;49.880;8.650;2023-09-07T09:00:03;17.27;;;15.90;;
63346;SDS011;49472;49.880;8.650;2023-09-07T09:02:33;16.60;;;15.15;;
63346;SDS011;49472;49.880;8.650;2023-09-07T09:04:58;17.10;;;15.80;;
63346;SDS011;49472;49.880;8.650;2023-09-07T09:07:24;15.27;;;13.95;;
63346;SDS011;49472;49.880;8.650;2023-09-07T09:09:49;16.63;;;15.25;;
63346;SDS011;49472;49.880;8.650;2023-09-07T09:12:14;16.65;;;15.25;;
63346;SDS011;49472;49.880;8.650;2023-09-07T09:14:43;16.25;;;14.60;;
63346;SDS011;49472;49.880;8.650;2023-09-07T09:17:12;16.13;;;14.68;;
63346;SDS011;49472;49.880;8.650;2023-09-07T09:19:38;15.57;;;14.43;;
63346;SDS011;49472;49.880;8.650;2023-09-07T09:22:04;16.50;;;15.20;;
63346;SDS011;49472;49.880;8.650;2023-09-07T09:24:32;15.98;;;14.77;;
63346;SDS011;49472;49.880;8.650;2023-09-07T09:26:59;15.95;;;14.50;;
63346;SDS011;49472;49.880;8.650;2023-09-07T09:29:24;15.32;;;14.32;;
63346;SDS011;49472;49.880;8.650;2023-09-07T09:31:50;16.15;;;14.65;;
63346;SDS011;49472;49.880;8.650;2023-09-07T09:34:15;17.60;;;16.30;;
63346;SDS011;49472;49.880;8.650;2023-09-07T09:36:41;15.48;;;14.27;;
63346;SDS011;49472;49.880;8.650;2023-09-07T09:39:07;15.05;;;13.82;;
63346;SDS011;49472;49.880;8.650;2023-09-07T09:41:32;15.00;;;13.98;;
63346;SDS011;49472;49.880;8.650;2023-09-07T09:43:59;16.10;;;14.60;;
63346;SDS011;49472;49.880;8.650;2023-09-07T09:46:24;16.52;;;15.20;;
63346;SDS011;49472;49.880;8.650;2023-09-07T09:48:50;16.25;;;15.05;;
63346;SDS011;49472;49.880;8.650;2023-09-07T09:51:16;18.98;;;15.13;;
63346;SDS011;49472;49.880;8.650;2023-09-07T09:53:43;17.42;;;14.57;;
63346;SDS011;49472;49.880;8.650;2023-09-07T09:56:08;15.75;;;14.75;;
63346;SDS011;49472;49.880;8.650;2023-09-07T09:58:33;16.38;;;14.73;;
63346;SDS011;49472;49.880;8.650;2023-09-07T10:00:58;16.42;;;15.07;;
63346;SDS011;49472;49.880;8.650;2023-09-07T10:03:26;15.77;;;14.70;;
63346;SDS011;49472;49.880;8.650;2023-09-07T10:05:53;15.73;;;14.43;;
63346;SDS011;49472;49.880;8.650;2023-09-07T10:08:19;15.48;;;14.32;;
63346;SDS011;49472;49.880;8.650;2023-09-07T10:10:46;15.38;;;14.15;;
63346;SDS011;49472;49.880;8.650;2023-09-07T10:13:15;15.90;;;14.65;;
63346;SDS011;49472;49.880;8.650;2023-09-07T10:15:41;15.70;;;14.25;;
63346;SDS011;49472;49.880;8.650;2023-09-07T10:20:46;14.68;;;13.38;;
63346;SDS011;49472;49.880;8.650;2023-09-07T10:23:12;15.82;;;13.75;;
63346;SDS011;49472;49.880;8.650;2023-09-07T10:25:38;16.48;;;13.55;;
63346;SDS011;49472;49.880;8.650;2023-09-07T10:28:03;15.68;;;14.57;;
63346;SDS011;49472;49.880;8.650;2023-09-07T10:30:29;15.20;;;14.18;;
63346;SDS011;49472;49.880;8.650;2023-09-07T10:32:54;14.57;;;13.57;;
63346;SDS011;49472;49.880;8.650;2023-09-07T10:35:19;15.43;;;14.25;;
63346;SDS011;49472;49.880;8.650;2023-09-07T10:37:49;16.38;;;15.10;;
63346;SDS011;49472;49.880;8.650;2023-09-07T10:40:21;14.32;;;13.43;;
63346;SDS011;49472;49.880;8.650;2023-09-07T10:42:46;17.08;;;14.23;;
63346;SDS011;49472;49.880;8.650;2023-09-07T10:45:12;16.02;;;14.68;;
63346;SDS011;49472;49.880;8.650;2023-09-07T10:47:40;14.35;;;13.20;;
63346;SDS011;49472;49.880;8.650;2023-09-07T10:50:05;19.85;;;14.05;;
63346;SDS011;49472;49.880;8.650;2023-09-07T10:52:33;14.20;;;13.30;;
63346;SDS011;49472;49.880;8.650;2023-09-07T10:54:58;14.65;;;13.45;;
63346;SDS011;49472;49.880;8.650;2023-09-07T10:57:23;15.35;;;14.07;;
63346;SDS011;49472;49.880;8.650;2023-09-07T10:59:48;15.63;;;14.57;;
63346;SDS011;49472;49.880;8.650;2023-09-07T11:02:14;15.10;;;13.90;;
63346;SDS011;49472;49.880;8.650;2023-09-07T11:04:40;15.60;;;14.18;;
63346;SDS011;49472;49.880;8.650;2023-09-07T11:07:05;13.80;;;13.00;;
63346;SDS011;49472;49.880;8.650;2023-09-07T11:09:31;15.98;;;13.82;;
63346;SDS011;49472;49.880;8.650;2023-09-07T11:11:57;14.27;;;13.27;;
63346;SDS011;49472;49.880;8.650;2023-09-07T11:14:22;15.43;;;14.20;;
63346;SDS011;49472;49.880;8.650;2023-09-07T11:16:50;14.73;;;13.38;;
63346;SDS011;49472;49.880;8.650;2023-09-07T11:19:21;13.57;;;12.80;;
63346;SDS011;49472;49.880;8.650;2023-09-07T11:21:46;14.75;;;13.32;;
63346;SDS011;49472;49.880;8.650;2023-09-07T11:24:11;14.20;;;13.30;;
63346;SDS011;49472;49.880;8.650;2023-09-07T11:26:43;14.05;;;13.05;;
63346;SDS011;49472;49.880;8.650;2023-09-07T11:29:09;13.10;;;12.20;;
63346;SDS011;49472;49.880;8.650;2023-09-07T11:31:34;16.98;;;12.85;;
63346;SDS011;49472;49.880;8.650;2023-09-07T11:33:59;13.38;;;12.10;;
63346;SDS011;49472;49.880;8.650;2023-09-07T11:36:24;12.85;;;12.15;;
63346;SDS011;49472;49.880;8.650;2023-09-07T11:38:50;14.00;;;13.10;;
63346;SDS011;49472;49.880;8.650;2023-09-07T11:41:15;13.95;;;12.85;;
63346;SDS011;49472;49.880;8.650;2023-09-07T11:43:41;15.38;;;12.85;;
63346;SDS011;49472;49.880;8.650;2023-09-07T11:46:07;13.35;;;12.25;;
63346;SDS011;49472;49.880;8.650;2023-09-07T11:48:32;14.00;;;12.35;;
63346;SDS011;49472;49.880;8.650;2023-09-07T11:50:58;14.73;;;12.52;;
63346;SDS011;49472;49.880;8.650;2023-09-07T11:53:24;11.90;;;10.90;;
63346;SDS011;49472;49.880;8.650;2023-09-07T11:55:49;12.73;;;11.75;;
63346;SDS011;49472;49.880;8.650;2023-09-07T11:58:14;12.57;;;11.73;;
63346;SDS011;49472;49.880;8.650;2023-09-07T12:00:39;18.00;;;11.63;;
63346;SDS011;49472;49.880;8.650;2023-09-07T12:03:06;12.70;;;11.75;;
63346;SDS011;49472;49.880;8.650;2023-09-07T12:05:31;12.30;;;11.47;;
63346;SDS011;49472;49.880;8.650;2023-09-07T12:07:57;12.27;;;11.48;;
63346;SDS011;49472;49.880;8.650;2023-09-07T12:10:22;11.63;;;10.93;;
63346;SDS011;49472;49.880;8.650;2023-09-07T12:12:47;11.70;;;11.10;;
63346;SDS011;49472;49.880;8.650;2023-09-07T12:15:13;12.20;;;11.38;;
63346;SDS011;49472;49.880;8.650;2023-09-07T12:17:38;11.65;;;10.77;;
63346;SDS011;49472;49.880;8.650;2023-09-07T12:20:04;11.43;;;10.82;;
63346;SDS011;49472;49.880;8.650;2023-09-07T12:22:38;12.15;;;11.02;;
63346;SDS011;49472;49.880;8.650;2023-09-07T12:25:04;11.25;;;10.55;;
63346;SDS011;49472;49.880;8.650;2023-09-07T12:27:31;11.32;;;10.43;;
63346;SDS011;49472;49.880;8.650;2023-09-07T12:29:56;10.38;;;9.88;;
63346;SDS011;49472;49.880;8.650;2023-09-07T12:32:22;11.10;;;10.50;;
63346;SDS011;49472;49.880;8.650;2023-09-07T12:34:47;10.70;;;9.73;;
63346;SDS011;49472;49.880;8.650;2023-09-07T12:37:12;10.30;;;9.70;;
63346;SDS011;49472;49.880;8.650;2023-09-07T12:39:37;12.07;;;10.70;;
63346;SDS011;49472;49.880;8.650;2023-09-07T12:42:02;9.73;;;8.88;;
63346;SDS011;49472;49.880;8.650;2023-09-07T12:44:28;11.35;;;9.80;;
63346;SDS011;49472;49.880;8.650;2023-09-07T12:46:53;9.32;;;8.73;;
63346;SDS011;49472;49.880;8.650;2023-09-07T12:49:18;9.63;;;9.07;;
63346;SDS011;49472;49.880;8.650;2023-09-07T12:51:45;10.13;;;9.37;;
63346;SDS011;49472;49.880;8.650;2023-09-07T12:54:10;9.73;;;9.23;;
63346;SDS011;49472;49.880;8.650;2023-09-07T12:56:35;10.15;;;9.35;;
63346;SDS011;49472;49.880;8.650;2023-09-07T12:59:00;10.25;;;8.27;;
63346;SDS011;49472;49.880;8.650;2023-09-07T13:01:28;9.20;;;8.70;;
63346;SDS011;49472;49.880;8.650;2023-09-07T13:03:54;10.10;;;8.88;;
63346;SDS011;49472;49.880;8.650;2023-09-07T13:06:22;9.40;;;8.55;;
63346;SDS011;49472;49.880;8.650;2023-09-07T13:08:48;8.60;;;8.20;;
63346;SDS011;49472;49.880;8.650;2023-09-07T13:11:13;9.33;;;8.30;;
63346;SDS011;49472;49.880;8.650;2023-09-07T13:13:38;7.85;;;7.43;;
63346;SDS011;49472;49.880;8.650;2023-09-07T13:16:03;8.60;;;8.10;;
63346;SDS011;49472;49.880;8.650;2023-09-07T13:18:29;8.38;;;7.70;;
63346;SDS011;49472;49.880;8.650;2023-09-07T13:20:54;7.88;;;7.47;;
63346;SDS011;49472;49.880;8.650;2023-09-07T13:23:25;8.07;;;7.57;;
63346;SDS011;49472;49.880;8.650;2023-09-07T13:25:50;8.38;;;7.50;;
63346;SDS011;49472;49.880;8.650;2023-09-07T13:28:15;7.20;;;6.80;;
63346;SDS011;49472;49.880;8.650;2023-09-07T13:30:40;6.90;;;6.60;;
63346;SDS011;49472;49.880;8.650;2023-09-07T13:33:05;7.27;;;6.77;;
63346;SDS011;49472;49.880;8.650;2023-09-07T13:35:30;7.30;;;6.87;;
63346;SDS011;49472;49.880;8.650;2023-09-07T13:37:56;6.70;;;6.43;;
63346;SDS011;49472;49.880;8.650;2023-09-07T13:40:21;6.40;;;6.03;;
63346;SDS011;49472;49.880;8.650;2023-09-07T13:42:49;7.70;;;7.40;;
63346;SDS011;49472;49.880;8.650;2023-09-07T13:45:14;7.30;;;6.90;;
63346;SDS011;49472;49.880;8.650;2023-09-07T13:47:39;6.50;;;6.30;;
63346;SDS011;49472;49.880;8.650;2023-09-07T13:50:04;6.00;;;5.80;;
63346;SDS011;49472;49.880;8.650;2023-09-07T13:52:30;6.60;;;6.10;;
63346;SDS011;49472;49.880;8.650;2023-09-07T13:54:55;6.57;;;6.13;;
63346;SDS011;49472;49.880;8.650;2023-09-07T13:57:20;6.40;;;5.90;;
63346;SDS011;49472;49.880;8.650;2023-09-07T13:59:46;6.45;;;6.20;;
63346;SDS011;49472;49.880;8.650;2023-09-07T14:02:11;6.87;;;6.47;;
63346;SDS011;49472;49.880;8.650;2023-09-07T14:04:36;7.00;;;6.60;;
63346;SDS011;49472;49.880;8.650;2023-09-07T14:07:01;7.10;;;6.60;;
63346;SDS011;49472;49.880;8.650;2023-09-07T14:09:26;6.30;;;6.07;;
63346;SDS011;49472;49.880;8.650;2023-09-07T14:11:51;6.90;;;6.20;;
63346;SDS011;49472;49.880;8.650;2023-09-07T14:14:17;6.13;;;5.93;;
63346;SDS011;49472;49.880;8.650;2023-09-07T14:16:42;8.52;;;5.63;;